Time;durP1;ratioP1;P1;durP2;ratioP2;P2;SDS_P1;SDS_P2;PMS_P1;PMS_P2;Temp;Humidity;BMP_temperature;BMP_pressure;BME280_temperature;BME280_humidity;BME280_pressure;Samples;Min_cycle;Max_cycle;Signal;HPM_P1;HPM_P2
2023/06/30 00:01:54;;;;;;;7.72;3.97;;;;;;;15.96;100.00;101326.78;5008401;28;20346;-59
2023/06/30 00:04:22;;;;;;;6.82;3.58;;;;;;;15.93;100.00;101322.38;5008412;28;20073;-60
2023/06/30 00:06:49;;;;;;;6.80;3.75;;;;;;;15.90;100.00;101330.16;5008357;28;20531;-59
2023/06/30 00:09:16;;;;;;;7.65;4.10;;;;;;;15.83;100.00;101321.31;5008893;28;20022;-59
2023/06/30 00:11:41;;;;;;;8.20;3.53;;;;;;;15.78;100.00;101328.22;5008241;28;20898;-60
2023/06/30 00:14:07;;;;;;;6.68;3.38;;;;;;;15.71;100.00;101327.22;5007984;28;20022;-60
2023/06/30 00:16:32;;;;;;;7.82;3.50;;;;;;;15.61;100.00;101326.16;5008517;28;20165;-60
2023/06/30 00:18:58;;;;;;;3.67;3.20;;;;;;;15.57;100.00;101332.19;5007582;28;20106;-60
2023/06/30 00:21:23;;;;;;;5.68;3.33;;;;;;;15.54;100.00;101329.50;5008273;28;20185;-60
2023/06/30 00:23:48;;;;;;;5.43;3.40;;;;;;;15.50;100.00;101332.94;5007665;28;20113;-59
2023/06/30 00:26:14;;;;;;;5.97;3.22;;;;;;;15.46;100.00;101324.16;5007254;28;20104;-60
2023/06/30 00:28:39;;;;;;;5.07;4.07;;;;;;;15.42;100.00;101318.81;5008063;28;20052;-59
2023/06/30 00:31:04;;;;;;;5.47;3.13;;;;;;;15.39;100.00;101318.75;5007950;28;20034;-59
2023/06/30 00:33:30;;;;;;;8.77;3.42;;;;;;;15.39;100.00;101316.16;5008208;28;20422;-60
2023/06/30 00:35:55;;;;;;;6.88;3.25;;;;;;;15.36;100.00;101310.03;5007937;28;20095;-59
2023/06/30 00:38:20;;;;;;;8.45;3.30;;;;;;;15.34;100.00;101309.09;5008024;28;20044;-59
2023/06/30 00:40:45;;;;;;;10.57;3.67;;;;;;;15.32;100.00;101318.66;5007587;28;20532;-60
2023/06/30 00:43:11;;;;;;;7.07;2.95;;;;;;;15.32;100.00;101312.56;5007604;28;20029;-59
2023/06/30 00:45:36;;;;;;;8.45;3.70;;;;;;;15.31;100.00;101311.66;5008435;28;20017;-60
2023/06/30 00:48:03;;;;;;;6.90;2.75;;;;;;;15.29;100.00;101309.88;5007669;28;20533;-60
2023/06/30 00:50:28;;;;;;;4.25;2.50;;;;;;;15.28;100.00;101315.94;5007168;28;20029;-59
2023/06/30 00:52:55;;;;;;;5.93;2.42;;;;;;;15.26;100.00;101313.31;5007329;28;20665;-59
2023/06/30 00:55:21;;;;;;;5.72;2.38;;;;;;;15.25;100.00;101322.84;5007645;28;20040;-60
2023/06/30 00:57:46;;;;;;;6.22;3.00;;;;;;;15.22;100.00;101319.31;5007345;28;20494;-60
2023/06/30 01:00:12;;;;;;;6.97;2.70;;;;;;;15.17;100.00;101323.53;4989542;28;20042;-60
2023/06/30 01:02:48;;;;;;;5.65;2.45;;;;;;;15.16;100.00;101321.81;5007969;28;20410;-60
2023/06/30 01:05:25;;;;;;;5.28;2.15;;;;;;;15.08;100.00;101327.75;4994537;28;20053;-58
2023/06/30 01:07:50;;;;;;;8.32;2.53;;;;;;;15.03;100.00;101328.47;5007754;28;20073;-58
2023/06/30 01:10:19;;;;;;;8.40;2.50;;;;;;;14.95;100.00;101323.13;5008198;28;20045;-60
2023/06/30 01:12:45;;;;;;;6.07;3.10;;;;;;;14.89;100.00;101331.69;5006859;28;20080;-60
2023/06/30 01:15:12;;;;;;;6.75;3.03;;;;;;;14.81;100.00;101323.69;5007655;28;20197;-59
2023/06/30 01:17:44;;;;;;;9.75;3.30;;;;;;;14.76;100.00;101317.47;5007288;28;20104;-59
2023/06/30 01:20:11;;;;;;;9.75;3.00;;;;;;;14.71;100.00;101316.47;5007480;28;20029;-60
2023/06/30 01:23:04;;;;;;;8.85;2.75;;;;;;;14.73;100.00;101317.41;5007693;28;20026;-60
2023/06/30 01:25:30;;;;;;;9.75;2.97;;;;;;;14.71;100.00;101326.91;4999397;28;20041;-60
2023/06/30 01:27:57;;;;;;;9.07;3.28;;;;;;;14.69;100.00;101326.88;5007069;28;20033;-59
2023/06/30 01:30:23;;;;;;;6.82;2.83;;;;;;;14.67;100.00;101323.34;5007106;28;20482;-60
2023/06/30 01:32:54;;;;;;;7.07;3.15;;;;;;;14.67;100.00;101323.34;5007671;28;20056;-59
2023/06/30 01:35:20;;;;;;;7.30;3.13;;;;;;;14.64;100.00;101324.16;5006761;28;20041;-59
2023/06/30 01:37:45;;;;;;;8.07;3.33;;;;;;;14.63;100.00;101316.28;5006750;28;20033;-60
2023/06/30 01:40:11;;;;;;;8.63;3.22;;;;;;;14.59;100.00;101320.56;5007118;28;20497;-59
2023/06/30 01:42:37;;;;;;;8.60;3.20;;;;;;;14.60;100.00;101322.34;4994364;28;20083;-60
2023/06/30 01:45:04;;;;;;;6.65;3.10;;;;;;;14.59;100.00;101317.94;5007186;28;20053;-58
2023/06/30 01:47:30;;;;;;;7.10;3.00;;;;;;;14.58;100.00;101308.38;5006760;28;20033;-60
2023/06/30 01:49:57;;;;;;;6.40;3.35;;;;;;;14.58;100.00;101304.88;5007280;28;20034;-59
2023/06/30 01:52:22;;;;;;;6.97;3.55;;;;;;;14.56;100.00;101310.06;5007013;28;20025;-59
2023/06/30 01:54:47;;;;;;;11.55;3.85;;;;;;;14.52;100.00;101303.91;5007463;28;20407;-58
2023/06/30 01:57:13;;;;;;;8.80;3.20;;;;;;;14.51;100.00;101301.25;5006467;28;20018;-59
2023/06/30 01:59:38;;;;;;;6.75;2.88;;;;;;;14.52;100.00;101305.59;5006671;28;20061;-59
2023/06/30 02:02:03;;;;;;;8.38;2.78;;;;;;;14.53;100.00;101302.19;5006886;28;20018;-59
2023/06/30 02:04:29;;;;;;;7.75;3.42;;;;;;;14.52;100.00;101298.69;5006935;28;20030;-59
2023/06/30 02:06:55;;;;;;;6.45;2.55;;;;;;;14.49;100.00;101300.34;5009293;28;20022;-59
2023/06/30 02:09:20;;;;;;;10.13;3.50;;;;;;;14.44;100.00;101297.63;5010258;28;20033;-60
2023/06/30 02:11:46;;;;;;;5.55;2.60;;;;;;;14.43;100.00;101300.22;5010439;28;20026;-60
2023/06/30 02:14:11;;;;;;;7.32;2.88;;;;;;;14.40;100.00;101299.28;5010260;28;20121;-59
2023/06/30 02:16:36;;;;;;;8.05;3.05;;;;;;;14.35;100.00;101300.91;5010185;28;20097;-60
2023/06/30 02:19:01;;;;;;;3.95;2.40;;;;;;;14.32;100.00;101305.16;5010751;28;20045;-60
2023/06/30 02:21:27;;;;;;;9.30;2.78;;;;;;;14.31;100.00;101304.28;5011166;28;20026;-60
2023/06/30 02:23:52;;;;;;;5.47;2.50;;;;;;;14.26;100.00;101308.50;5010433;28;20405;-59
2023/06/30 02:26:17;;;;;;;7.15;2.67;;;;;;;14.16;100.00;101300.44;5010896;28;20056;-59
2023/06/30 02:28:43;;;;;;;8.57;2.72;;;;;;;14.09;100.00;101301.13;5009719;28;20026;-60
2023/06/30 02:31:08;;;;;;;5.32;2.53;;;;;;;14.03;100.00;101307.06;5010609;28;20026;-60
2023/06/30 02:33:33;;;;;;;6.47;2.78;;;;;;;13.95;100.00;101302.50;5010467;28;20145;-59
2023/06/30 02:35:58;;;;;;;7.75;2.40;;;;;;;13.86;100.00;101304.06;5010159;28;20366;-58
2023/06/30 02:38:24;;;;;;;9.98;3.35;;;;;;;13.81;100.00;101310.88;5010509;28;20018;-60
2023/06/30 02:40:49;;;;;;;8.52;3.05;;;;;;;13.74;100.00;101306.34;5009329;28;20286;-59
2023/06/30 02:43:14;;;;;;;9.57;3.25;;;;;;;13.68;100.00;101323.56;5010232;28;20035;-59
2023/06/30 02:45:40;;;;;;;6.88;2.42;;;;;;;13.64;100.00;101321.72;5009887;28;20028;-60
2023/06/30 02:48:05;;;;;;;8.57;2.90;;;;;;;13.62;100.00;101322.50;5010460;28;20040;-60
2023/06/30 02:50:31;;;;;;;6.90;3.00;;;;;;;13.57;100.00;101328.47;5009364;28;20048;-59
2023/06/30 02:52:59;;;;;;;6.43;3.00;;;;;;;13.52;100.00;101327.47;5009810;28;20513;-59
2023/06/30 02:55:25;;;;;;;5.15;2.67;;;;;;;13.51;100.00;101335.22;5010327;28;20029;-59
2023/06/30 02:57:50;;;;;;;5.85;3.00;;;;;;;13.46;100.00;101332.47;5010526;28;20549;-60
2023/06/30 03:00:16;;;;;;;8.07;4.05;;;;;;;13.41;100.00;101336.66;5009215;28;20053;-58
2023/06/30 03:02:42;;;;;;;7.57;3.72;;;;;;;13.37;100.00;101335.69;5009704;28;20117;-59
2023/06/30 03:05:08;;;;;;;9.32;3.20;;;;;;;13.35;100.00;101336.50;5009582;28;20413;-59
2023/06/30 03:07:34;;;;;;;11.32;3.35;;;;;;;13.33;100.00;101331.22;5009681;28;20088;-59
2023/06/30 03:10:00;;;;;;;5.72;3.08;;;;;;;13.30;100.00;101333.75;5009955;28;20022;-59
2023/06/30 03:12:25;;;;;;;6.95;3.40;;;;;;;13.28;100.00;101344.13;5009046;28;20502;-59
2023/06/30 03:14:50;;;;;;;7.20;3.42;;;;;;;13.26;100.00;101334.53;5009702;28;20028;-60
2023/06/30 03:17:15;;;;;;;7.13;3.33;;;;;;;13.21;100.00;101331.78;5006412;28;20857;-59
2023/06/30 03:19:41;;;;;;;7.38;3.38;;;;;;;13.16;100.00;101330.75;5008130;28;20041;-58
2023/06/30 03:22:06;;;;;;;7.22;3.50;;;;;;;13.13;100.00;101330.69;5007546;28;20397;-60
2023/06/30 03:24:31;;;;;;;6.70;3.72;;;;;;;13.08;100.00;101320.13;5007843;28;20041;-58
2023/06/30 03:26:57;;;;;;;9.45;3.78;;;;;;;13.03;100.00;101321.69;5006561;28;20022;-59
2023/06/30 03:29:22;;;;;;;5.93;3.47;;;;;;;12.97;100.00;101320.69;5007723;28;20030;-59
2023/06/30 03:31:47;;;;;;;7.30;3.95;;;;;;;12.92;100.00;101319.66;5005960;28;20524;-58
2023/06/30 03:34:13;;;;;;;9.18;3.50;;;;;;;12.87;100.00;101322.97;5008721;28;20072;-59
2023/06/30 03:36:38;;;;;;;5.80;3.40;;;;;;;12.80;100.00;101316.69;5009093;28;20084;-60
2023/06/30 03:39:05;;;;;;;6.63;3.42;;;;;;;12.77;100.00;101316.63;5009037;28;20026;-59
2023/06/30 03:41:30;;;;;;;6.85;3.55;;;;;;;12.76;100.00;101314.81;5009331;28;20390;-59
2023/06/30 03:43:55;;;;;;;7.85;3.20;;;;;;;12.72;100.00;101314.75;5008667;28;20030;-59
2023/06/30 03:46:20;;;;;;;5.32;3.10;;;;;;;12.72;100.00;101309.53;5009092;28;20057;-59
2023/06/30 03:48:46;;;;;;;5.18;4.00;;;;;;;12.72;100.00;101311.25;5009253;28;20030;-60
2023/06/30 03:51:11;;;;;;;6.88;3.65;;;;;;;12.72;100.00;101311.25;5009429;28;20018;-59
2023/06/30 03:53:36;;;;;;;12.20;4.15;;;;;;;12.73;100.00;101308.72;5008106;28;20385;-59
2023/06/30 03:56:02;;;;;;;8.48;3.55;;;;;;;12.75;100.00;101310.47;5009156;28;20072;-60
2023/06/30 03:58:28;;;;;;;7.32;3.70;;;;;;;12.73;100.00;101308.72;5008338;28;20441;-59
2023/06/30 04:00:54;;;;;;;10.35;3.60;;;;;;;12.75;100.00;101310.47;5008558;28;20042;-59
2023/06/30 04:03:20;;;;;;;7.45;4.18;;;;;;;12.72;100.00;101301.75;5008745;28;20097;-59
2023/06/30 04:05:45;;;;;;;8.82;3.70;;;;;;;12.70;100.00;101300.81;5008470;28;20194;-59
2023/06/30 04:08:10;;;;;;;9.05;4.00;;;;;;;12.71;100.00;101302.59;5008136;28;20539;-59
2023/06/30 04:10:36;;;;;;;7.22;4.32;;;;;;;12.72;100.00;101306.06;5008894;28;20029;-58
2023/06/30 04:13:05;;;;;;;6.30;4.10;;;;;;;12.71;100.00;101307.78;5008248;28;20018;-60
2023/06/30 04:15:30;;;;;;;5.60;3.88;;;;;;;12.71;100.00;101310.38;5008252;28;20417;-58
2023/06/30 04:17:55;;;;;;;12.90;4.68;;;;;;;12.72;100.00;101312.13;5008147;28;20029;-59
2023/06/30 04:20:21;;;;;;;9.63;4.10;;;;;;;12.73;100.00;101313.94;5002766;28;20113;-59
2023/06/30 04:22:47;;;;;;;9.25;4.45;;;;;;;12.73;100.00;101308.72;4990717;28;20033;-60
2023/06/30 04:25:12;;;;;;;7.13;4.20;;;;;;;12.77;100.00;101314.00;5007850;28;20040;-58
2023/06/30 04:27:37;;;;;;;12.95;4.82;;;;;;;12.79;100.00;101312.34;5008354;28;20036;-59
2023/06/30 04:30:03;;;;;;;11.20;5.20;;;;;;;12.78;100.00;101315.75;5007824;28;20516;-59
2023/06/30 04:32:29;;;;;;;10.48;4.30;;;;;;;12.81;100.00;101306.34;5007461;28;20033;-60
2023/06/30 04:34:54;;;;;;;7.05;3.95;;;;;;;12.86;100.00;101316.91;5008524;28;20494;-57
2023/06/30 04:37:19;;;;;;;7.95;4.65;;;;;;;12.83;100.00;101315.06;5007397;28;20022;-58
2023/06/30 04:39:47;;;;;;;7.00;3.83;;;;;;;12.86;100.00;101314.31;5008200;28;20021;-59
2023/06/30 04:42:14;;;;;;;8.48;4.47;;;;;;;12.87;100.00;101313.44;5008350;28;20041;-62
2023/06/30 04:44:39;;;;;;;6.57;3.70;;;;;;;12.88;100.00;101307.41;5007929;28;20494;-60
2023/06/30 04:47:06;;;;;;;6.60;4.13;;;;;;;12.92;100.00;101310.97;5008410;28;20119;-60
2023/06/30 04:49:31;;;;;;;6.32;4.00;;;;;;;12.93;100.00;101310.16;5008788;28;20084;-60
2023/06/30 04:51:57;;;;;;;9.05;4.78;;;;;;;12.91;100.00;101312.72;5008122;28;20026;-60
2023/06/30 04:54:22;;;;;;;9.10;4.75;;;;;;;12.92;100.00;101319.66;5007482;28;20797;-59
2023/06/30 04:56:47;;;;;;;6.13;4.20;;;;;;;12.94;100.00;101315.41;5008080;28;20028;-59
2023/06/30 04:59:13;;;;;;;8.65;4.28;;;;;;;12.99;100.00;101319.88;5008196;28;20046;-60
2023/06/30 05:01:38;;;;;;;6.65;4.47;;;;;;;13.04;100.00;101313.06;5007950;28;20627;-60
2023/06/30 05:04:03;;;;;;;7.70;4.05;;;;;;;13.09;100.00;101317.59;5007466;28;20034;-60
2023/06/30 05:06:28;;;;;;;8.75;3.83;;;;;;;13.14;100.00;101312.50;5006692;28;20136;-58
2023/06/30 05:08:55;;;;;;;9.75;4.65;;;;;;;13.18;100.00;101316.97;5007837;28;20054;-60
2023/06/30 05:11:20;;;;;;;10.02;4.15;;;;;;;13.25;100.00;101315.41;5007337;28;20026;-59
2023/06/30 05:13:45;;;;;;;7.35;4.55;;;;;;;13.31;100.00;101307.75;5007287;28;20033;-60
2023/06/30 05:16:12;;;;;;;7.90;4.10;;;;;;;13.37;100.00;101309.66;5007009;28;20141;-60
2023/06/30 05:18:37;;;;;;;10.18;4.57;;;;;;;13.45;100.00;101310.75;5007210;28;20096;-60
2023/06/30 05:21:02;;;;;;;5.60;4.30;;;;;;;13.54;100.00;101314.50;5007667;28;20029;-60
2023/06/30 05:23:28;;;;;;;8.88;4.50;;;;;;;13.62;100.00;101312.06;5006779;28;20104;-59
2023/06/30 05:25:53;;;;;;;11.20;3.95;;;;;;;13.73;100.00;101320.19;5007795;28;20109;-60
2023/06/30 05:28:19;;;;;;;6.00;4.63;;;;;;;13.81;100.00;101314.34;5012195;28;20040;-59
2023/06/30 05:30:44;;;;;;;9.15;4.70;;;;;;;13.88;100.00;101315.41;5019337;28;20037;-60
2023/06/30 05:33:09;;;;;;;9.68;5.05;;;;;;;13.95;100.00;101310.31;5015992;28;20044;-60
2023/06/30 05:35:34;;;;;;;9.40;4.45;;;;;;;14.04;100.00;101311.47;5012606;28;20547;-59
2023/06/30 05:38:00;;;;;;;8.40;4.75;;;;;;;14.14;100.00;101314.28;5022852;28;20025;-59
2023/06/30 05:40:25;;;;;;;10.35;4.40;;;;;;;14.24;100.00;101312.78;5012604;28;20092;-60
2023/06/30 05:42:51;;;;;;;6.80;4.20;;;;;;;14.34;100.00;101317.38;5017366;28;20026;-59
2023/06/30 05:45:16;;;;;;;8.23;3.83;;;;;;;14.44;100.00;101315.88;5013383;28;20064;-59
2023/06/30 05:47:42;;;;;;;4.90;3.92;;;;;;;14.56;100.00;101320.50;5016346;28;20029;-58
2023/06/30 05:50:07;;;;;;;8.40;4.15;;;;;;;14.67;100.00;101322.47;5015290;28;20612;-59
2023/06/30 05:52:32;;;;;;;4.28;3.60;;;;;;;14.76;100.00;101322.66;5018369;28;20029;-58
2023/06/30 05:54:59;;;;;;;5.60;4.03;;;;;;;14.86;100.00;101327.28;5015513;28;20413;-59
2023/06/30 05:57:24;;;;;;;8.75;4.07;;;;;;;14.98;100.00;101315.34;5012887;28;20025;-59
2023/06/30 05:59:50;;;;;;;7.72;3.97;;;;;;;15.11;100.00;101319.09;5016245;28;20054;-59
2023/06/30 06:02:15;;;;;;;6.65;3.90;;;;;;;15.22;100.00;101325.41;5014206;28;20034;-59
2023/06/30 06:04:41;;;;;;;4.95;3.13;;;;;;;15.34;100.00;101322.16;5015849;28;20117;-60
2023/06/30 06:07:06;;;;;;;7.93;3.78;;;;;;;15.45;100.00;101318.91;5008555;28;20025;-58
2023/06/30 06:09:32;;;;;;;4.57;2.72;;;;;;;15.56;100.00;101314.75;5012691;28;20112;-59
2023/06/30 06:11:57;;;;;;;3.53;2.70;;;;;;;15.70;100.00;101324.59;5011934;28;20030;-59
2023/06/30 06:14:22;;;;;;;4.53;2.42;;;;;;;15.78;100.00;101314.25;5010791;28;20484;-59
2023/06/30 06:16:48;;;;;;;5.38;2.20;;;;;;;15.87;100.00;101317.03;5011069;28;20033;-58
2023/06/30 06:19:14;;;;;;;3.13;2.30;;;;;;;15.97;100.00;101318.09;5010824;28;20030;-59
2023/06/30 06:21:40;;;;;;;3.65;2.20;;;;;;;16.08;100.00;101315.69;5010693;28;20026;-59
2023/06/30 06:24:07;;;;;;;5.45;2.50;;;;;;;16.19;100.00;101321.09;5011296;28;20053;-60
2023/06/30 06:26:32;;;;;;;3.20;2.15;;;;;;;16.28;100.00;101323.84;5010760;28;20044;-59
2023/06/30 06:28:57;;;;;;;3.67;2.13;;;;;;;16.40;100.00;101327.53;5010634;28;20517;-59
2023/06/30 06:31:24;;;;;;;3.97;2.17;;;;;;;16.50;100.00;101328.53;5010656;28;20034;-60
2023/06/30 06:33:50;;;;;;;3.92;2.30;;;;;;;16.64;100.00;101332.22;5010637;28;20125;-60
2023/06/30 06:36:15;;;;;;;5.97;2.65;;;;;;;16.74;100.00;101330.63;5010960;28;20113;-59
2023/06/30 06:38:40;;;;;;;6.43;2.97;;;;;;;16.86;99.56;101322.06;5009819;28;20450;-60
2023/06/30 06:41:05;;;;;;;7.72;2.67;;;;;;;16.97;97.55;101330.06;5011244;28;20330;-60
2023/06/30 06:43:31;;;;;;;4.55;2.38;;;;;;;17.08;97.63;101331.94;5011156;28;20022;-60
2023/06/30 06:45:56;;;;;;;4.43;1.95;;;;;;;17.18;95.20;101325.97;5010922;28;20467;-60
2023/06/30 06:48:26;;;;;;;4.28;1.98;;;;;;;17.31;94.04;101339.22;5010201;28;20084;-59
2023/06/30 06:50:56;;;;;;;3.25;2.03;;;;;;;17.42;92.92;101332.38;5010973;28;20049;-60
2023/06/30 06:53:29;;;;;;;5.03;2.20;;;;;;;17.58;92.27;101332.53;5009859;28;20064;-59
2023/06/30 06:55:56;;;;;;;4.38;1.95;;;;;;;17.68;90.55;101334.41;5010554;28;20140;-60
2023/06/30 06:58:23;;;;;;;5.35;1.92;;;;;;;17.81;90.62;101329.31;5010643;28;20022;-59
2023/06/30 07:00:50;;;;;;;2.55;1.98;;;;;;;17.94;90.71;101336.41;5009686;28;20128;-60
2023/06/30 07:03:16;;;;;;;5.15;2.15;;;;;;;18.02;87.64;101327.72;5010344;28;20033;-59
2023/06/30 07:05:43;;;;;;;3.55;1.38;;;;;;;18.08;85.75;101327.78;5010825;28;20053;-60
2023/06/30 07:08:10;;;;;;;6.32;1.90;;;;;;;18.19;86.41;101328.78;5010616;28;20323;-60
2023/06/30 07:10:35;;;;;;;4.97;2.03;;;;;;;18.26;82.23;101327.06;5009761;28;20021;-60
2023/06/30 07:13:01;;;;;;;2.92;1.48;;;;;;;18.38;84.38;101328.94;5010278;28;20026;-59
2023/06/30 07:15:27;;;;;;;5.28;1.40;;;;;;;18.51;83.41;101327.25;5009410;28;20145;-60
2023/06/30 07:17:53;;;;;;;3.13;1.20;;;;;;;18.63;82.51;101326.47;5010133;28;20033;-59
2023/06/30 07:20:18;;;;;;;3.95;1.45;;;;;;;18.79;81.72;101343.19;5010209;28;20033;-59
2023/06/30 07:22:43;;;;;;;4.32;1.50;;;;;;;18.90;78.21;101335.38;5010148;28;20029;-60
2023/06/30 07:25:09;;;;;;;5.07;1.48;;;;;;;19.01;77.37;101331.91;5009181;28;20049;-60
2023/06/30 07:27:38;;;;;;;3.35;1.38;;;;;;;19.18;77.30;101339.88;5010194;28;20030;-59
2023/06/30 07:30:04;;;;;;;2.35;1.10;;;;;;;19.32;76.23;101342.53;5009658;28;20115;-61
2023/06/30 07:32:30;;;;;;;1.75;0.90;;;;;;;19.46;75.36;101337.34;5009168;28;20274;-59
2023/06/30 07:34:56;;;;;;;2.15;0.80;;;;;;;19.60;74.33;101340.00;5009307;28;20041;-60
2023/06/30 07:37:21;;;;;;;2.92;1.02;;;;;;;19.72;75.47;101340.91;5009277;28;20034;-60
2023/06/30 07:39:46;;;;;;;1.90;0.85;;;;;;;19.86;73.98;101348.81;5008346;28;20026;-60
2023/06/30 07:42:11;;;;;;;1.95;1.00;;;;;;;19.95;71.36;101345.31;5009253;28;20370;-60
2023/06/30 07:44:37;;;;;;;1.35;0.80;;;;;;;19.97;69.40;101336.56;5009211;28;20022;-59
2023/06/30 07:47:02;;;;;;;4.72;1.05;;;;;;;20.06;69.74;101346.22;4991031;28;20648;-58
2023/06/30 07:49:27;;;;;;;2.55;1.23;;;;;;;20.15;67.43;101337.47;5009327;28;20041;-60
2023/06/30 07:51:53;;;;;;;3.63;1.23;;;;;;;20.24;65.92;101334.81;5009004;28;20032;-60
2023/06/30 07:54:18;;;;;;;2.35;0.85;;;;;;;20.35;67.13;101337.44;5008280;28;20022;-58
2023/06/30 07:56:46;;;;;;;3.40;0.77;;;;;;;20.47;65.67;101340.97;5008094;28;20021;-60
2023/06/30 07:59:11;;;;;;;2.97;1.17;;;;;;;20.63;66.22;101334.75;5008752;28;20046;-60
2023/06/30 08:01:36;;;;;;;5.43;1.33;;;;;;;20.77;64.31;101331.22;5008420;28;20018;-59
2023/06/30 08:04:02;;;;;;;1.63;0.95;;;;;;;20.90;63.75;101337.34;5007732;28;20524;-60
2023/06/30 08:06:27;;;;;;;3.03;0.80;;;;;;;20.98;61.31;101332.94;5008683;28;20032;-59
2023/06/30 08:08:52;;;;;;;4.13;1.30;;;;;;;21.08;61.30;101344.31;5008189;28;20029;-59
2023/06/30 08:11:17;;;;;;;4.35;0.80;;;;;;;21.17;61.91;101343.41;5008635;28;20061;-60
2023/06/30 08:13:43;;;;;;;2.08;0.93;;;;;;;21.30;60.46;101341.59;5008669;28;20080;-59
2023/06/30 08:16:08;;;;;;;3.03;1.05;;;;;;;21.38;58.57;101333.66;5008040;28;20478;-60
2023/06/30 08:18:33;;;;;;;1.85;0.85;;;;;;;21.49;57.91;101338.84;5008462;28;20017;-59
2023/06/30 08:20:58;;;;;;;1.85;0.90;;;;;;;21.45;55.84;101340.63;5008890;28;20105;-59
2023/06/30 08:23:25;;;;;;;1.60;0.80;;;;;;;21.56;57.64;101339.69;5008375;28;20335;-60
2023/06/30 08:25:53;;;;;;;1.70;0.90;;;;;;;21.68;57.53;101333.44;5008535;28;20025;-60
2023/06/30 08:28:18;;;;;;;1.98;0.57;;;;;;;21.88;58.25;101335.09;5008260;28;20034;-60
2023/06/30 08:30:44;;;;;;;2.40;0.90;;;;;;;22.01;58.45;101339.41;5007880;28;20105;-60
2023/06/30 08:33:09;;;;;;;3.78;1.25;;;;;;;22.15;56.49;101326.09;5007967;28;20026;-60
2023/06/30 08:35:34;;;;;;;2.03;1.00;;;;;;;22.28;54.81;101326.88;5007750;28;20029;-60
2023/06/30 08:37:59;;;;;;;3.17;1.02;;;;;;;22.36;54.25;101336.47;5008151;28;20104;-60
2023/06/30 08:40:26;;;;;;;3.17;0.77;;;;;;;22.43;55.74;101331.09;5007775;28;20034;-60
2023/06/30 08:42:53;;;;;;;1.83;0.77;;;;;;;22.54;54.82;101324.88;5008614;28;20097;-60
2023/06/30 08:45:20;;;;;;;2.45;1.33;;;;;;;22.61;52.05;101315.09;5007775;28;20726;-58
2023/06/30 08:47:46;;;;;;;1.52;0.82;;;;;;;22.57;52.18;101319.53;5007954;28;20038;-61
2023/06/30 08:50:13;;;;;;;1.92;0.80;;;;;;;22.64;51.91;101317.72;5008118;28;20081;-60
2023/06/30 08:52:38;;;;;;;3.10;1.02;;;;;;;22.63;50.87;101308.06;5007905;28;20030;-60
2023/06/30 08:55:06;;;;;;;1.52;0.80;;;;;;;22.70;52.75;101309.75;5007392;28;20418;-61
2023/06/30 08:57:32;;;;;;;1.85;0.80;;;;;;;22.74;51.04;101313.25;5008049;28;20542;-61
2023/06/30 08:59:57;;;;;;;2.78;1.05;;;;;;;22.76;50.98;101311.44;5007390;28;20045;-60
2023/06/30 09:02:23;;;;;;;2.63;0.80;;;;;;;22.73;51.55;101306.19;5008375;28;20806;-60
2023/06/30 09:04:48;;;;;;;2.13;1.15;;;;;;;22.70;51.02;101299.19;5007138;28;20034;-60
2023/06/30 09:07:26;;;;;;;4.25;1.02;;;;;;;22.67;54.01;101302.72;5008107;28;20022;-61
2023/06/30 09:09:56;;;;;;;2.63;1.00;;;;;;;22.68;53.92;101306.25;5007141;28;20474;-60
2023/06/30 09:12:22;;;;;;;4.05;1.20;;;;;;;22.72;50.29;101313.22;5007064;28;20065;-60
2023/06/30 09:14:51;;;;;;;2.97;0.88;;;;;;;22.74;51.71;101306.16;5007136;28;20037;-60
2023/06/30 09:17:17;;;;;;;2.75;1.02;;;;;;;22.76;54.42;101304.38;5007278;28;20038;-60
2023/06/30 09:19:44;;;;;;;2.35;0.85;;;;;;;22.79;54.07;101303.50;5007759;28;20036;-60
2023/06/30 09:22:10;;;;;;;3.33;1.08;;;;;;;22.78;51.02;101297.31;5006601;28;20418;-60
2023/06/30 09:24:35;;;;;;;0.90;0.70;;;;;;;22.88;52.47;101303.34;5007561;28;20485;-59
2023/06/30 09:27:01;;;;;;;1.95;1.08;;;;;;;22.95;51.74;101298.88;5007189;28;20152;-59
2023/06/30 09:29:33;;;;;;;2.50;1.10;;;;;;;23.02;52.25;101299.69;5007074;28;20037;-61
2023/06/30 09:32:02;;;;;;;3.00;1.10;;;;;;;23.01;51.19;101304.06;5006355;28;20018;-60
2023/06/30 09:34:27;;;;;;;2.47;1.30;;;;;;;22.86;51.50;101304.28;5006934;28;20033;-60
2023/06/30 09:36:54;;;;;;;3.90;1.30;;;;;;;22.81;52.67;101298.19;5007538;28;20022;-60
2023/06/30 09:39:20;;;;;;;1.65;1.05;;;;;;;22.70;53.90;101296.56;5006386;28;20037;-60
2023/06/30 09:41:47;;;;;;;4.18;1.42;;;;;;;22.55;51.90;101295.78;5007276;28;20080;-60
2023/06/30 09:44:13;;;;;;;5.68;1.55;;;;;;;22.53;54.39;101297.56;5007774;28;20029;-61
2023/06/30 09:46:49;;;;;;;4.68;1.25;;;;;;;22.54;51.00;101290.53;5006852;28;20110;-60
2023/06/30 09:49:30;;;;;;;3.10;1.50;;;;;;;22.62;51.26;101290.44;5007813;28;20033;-60
2023/06/30 09:51:56;;;;;;;3.50;1.10;;;;;;;22.69;51.30;101286.88;5004948;28;20051;-60
2023/06/30 09:54:22;;;;;;;1.95;1.00;;;;;;;22.87;53.09;101287.53;5005911;28;20029;-59
2023/06/30 09:56:56;;;;;;;2.65;1.30;;;;;;;22.90;50.51;101284.88;5006113;28;20034;-60
2023/06/30 09:59:22;;;;;;;2.10;1.38;;;;;;;22.78;52.16;101292.03;5006286;28;20042;-60
2023/06/30 10:01:52;;;;;;;2.75;1.30;;;;;;;22.64;52.46;101289.56;5006610;28;20041;-59
2023/06/30 10:04:17;;;;;;;4.72;1.40;;;;;;;22.74;54.04;101287.69;5006789;28;20029;-58
2023/06/30 10:06:42;;;;;;;3.85;1.30;;;;;;;22.94;54.74;101289.19;5007521;28;20418;-59
2023/06/30 10:09:08;;;;;;;3.70;1.23;;;;;;;23.22;52.13;101288.84;5004709;28;20033;-60
2023/06/30 10:11:35;;;;;;;2.15;0.95;;;;;;;23.46;53.14;101284.09;5005220;28;20470;-60
2023/06/30 10:14:01;;;;;;;1.88;1.02;;;;;;;23.70;52.16;101276.69;5004945;28;20021;-60
2023/06/30 10:16:28;;;;;;;2.35;1.15;;;;;;;23.65;46.34;101282.94;5005462;28;20026;-59
2023/06/30 10:18:55;;;;;;;2.90;1.13;;;;;;;23.64;47.73;101282.06;5004510;28;20018;-59
2023/06/30 10:21:21;;;;;;;2.33;1.10;;;;;;;23.61;47.66;101276.84;5004836;28;20034;-59
2023/06/30 10:23:47;;;;;;;2.53;1.13;;;;;;;23.53;48.09;101273.44;5005602;28;20085;-60
2023/06/30 10:26:16;;;;;;;2.83;1.10;;;;;;;23.60;49.06;101273.31;5007250;28;20052;-61
2023/06/30 10:28:41;;;;;;;3.60;1.63;;;;;;;23.69;49.05;101277.56;5010132;28;20113;-60
2023/06/30 10:31:08;;;;;;;4.75;1.55;;;;;;;23.64;47.31;101266.19;5010647;28;20029;-60
2023/06/30 10:33:33;;;;;;;4.43;1.48;;;;;;;23.54;46.84;101261.97;5009708;28;20356;-59
2023/06/30 10:35:59;;;;;;;2.92;1.15;;;;;;;23.46;47.82;101255.03;5009634;28;20073;-60
2023/06/30 10:38:26;;;;;;;2.65;1.40;;;;;;;23.54;49.14;101264.59;5010697;28;20041;-61
2023/06/30 10:41:11;;;;;;;6.07;1.70;;;;;;;23.56;47.26;101262.81;5010224;28;20430;-59
2023/06/30 10:44:08;;;;;;;4.32;1.40;;;;;;;23.47;46.89;101259.44;5001908;28;20041;-60
2023/06/30 10:46:55;;;;;;;4.20;1.58;;;;;;;23.12;46.70;101253.72;5010589;28;20026;-60
2023/06/30 10:49:31;;;;;;;2.17;0.95;;;;;;;23.00;47.61;101257.44;5010099;28;20025;-59
2023/06/30 10:51:59;;;;;;;2.25;0.85;;;;;;;23.12;47.58;101260.78;5004916;28;20050;-60
2023/06/30 10:54:29;;;;;;;2.45;1.20;;;;;;;23.37;47.83;101252.47;5009808;28;20037;-60
2023/06/30 10:57:34;;;;;;;3.47;1.00;;;;;;;23.57;48.89;101248.69;5010019;28;20049;-59
2023/06/30 11:00:11;;;;;;;1.73;1.00;;;;;;;23.78;48.68;101236.00;5009226;28;20041;-61
2023/06/30 11:02:48;;;;;;;4.60;1.20;;;;;;;23.90;47.67;101234.91;5010243;28;20026;-60
2023/06/30 11:05:20;;;;;;;3.08;1.20;;;;;;;24.04;49.73;101240.84;4997921;28;20029;-60
2023/06/30 11:07:47;;;;;;;3.08;1.20;;;;;;;24.11;47.94;101236.28;5009196;28;20034;-59
2023/06/30 11:10:13;;;;;;;2.55;0.85;;;;;;;24.22;47.96;101229.06;5010369;28;20028;-60
2023/06/30 11:12:53;;;;;;;2.45;1.10;;;;;;;24.39;47.62;101238.47;5009648;28;20530;-60
2023/06/30 11:15:27;;;;;;;2.38;1.13;;;;;;;24.46;46.10;101223.31;5009810;28;20026;-59
2023/06/30 11:17:52;;;;;;;2.85;1.35;;;;;;;24.49;47.87;101227.66;5009646;28;20049;-60